Latest Weather Observations for Leigh Creek

IDS60801

Issued at 7:01 pm CST Sunday 30 August 2015 (issued every 30 minutes, with the page automatically refreshed every 10 minutes)

About weather observations | Map of weather stations | Latest weather observations for SA | Other Formats
Station Details ID: 017110 Name: LEIGH CREEK AIRPORT Lat: -30.60 Lon: 138.42 Height: 258.8 m
Data from the previous 72 hours. | See also: Recent months at Leigh Creek
Date/Time
CST
Temp
°C
App
Temp
°C
Dew
Point
Rel
Hum
%
Delta-T
°C
Wind Press
QNH
hPa
Press
MSL
hPa
Rain
since 9 am
mm
Dir
 
Spd
km/h
Gust
km/h
Spd
kts
Gust
kts
30/07:00pm 13.4 10.1 2.3 47 4.9 SW 9 11 5 6 1022.0 1022.0 0.0
30/06:30pm 14.8 11.0 1.7 41 5.8 SW 11 15 6 8 1021.8 1021.8 0.0
30/06:00pm 15.8 12.6 0.8 36 6.6 SW 7 9 4 5 1021.3 1021.3 0.0
30/05:30pm 17.4 15.1 0.1 31 7.6 SW 2 6 1 3 1021.3 1021.3 0.0
30/05:00pm 18.4 15.4 0.5 30 8.0 WNW 6 11 3 6 1021.1 1021.1 0.0
30/04:30pm 18.4 14.4 0.5 30 8.0 WSW 11 17 6 9 1021.1 1021.1 0.0
30/04:00pm 18.7 15.1 0.3 29 8.2 WNW 9 15 5 8 1021.3 1021.3 0.0
30/03:30pm 18.5 15.2 0.2 29 8.1 ENE 7 13 4 7 1021.3 1021.3 0.0
30/03:00pm 18.3 15.2 0.0 29 8.0 SSE 6 11 3 6 1021.5 1021.5 0.0
30/02:30pm 18.9 15.4 1.0 30 8.1 WSW 9 17 5 9 1021.8 1021.8 0.0
30/02:00pm 18.6 14.6 0.7 30 8.0 W 11 19 6 10 1022.2 1022.2 0.0
30/01:30pm 18.5 15.4 1.1 31 7.8 SSE 7 15 4 8 1022.6 1022.6 0.0
30/01:00pm 17.4 14.1 0.1 31 7.6 SE 7 19 4 10 1022.9 1022.9 0.0
30/12:30pm 17.6 13.6 0.7 32 7.5 NNW 11 20 6 11 1023.5 1023.5 0.0
30/12:00pm 17.2 13.9 0.4 32 7.4 N 7 13 4 7 1024.0 1024.1 0.0
30/11:30am 16.6 13.0 0.3 33 7.1 N 9 17 5 9 1024.7 1024.7 0.0
30/11:00am 16.0 13.3 0.2 34 6.9 NNE 4 11 2 6 1025.1 1025.1 0.0
30/10:30am 15.4 11.7 0.0 35 6.6 ENE 9 15 5 8 1025.2 1025.2 0.0
30/10:00am 15.4 10.6 0.4 36 6.5 E 15 24 8 13 1025.3 1025.3 0.0
30/09:30am 14.8 8.7 0.3 37 6.2 E 22 28 12 15 1025.1 1025.1 0.0
30/09:00am 13.9 7.5 0.9 41 5.6 E 24 30 13 16 1025.1 1025.1 0.0
30/08:30am 13.0 7.6 1.4 45 5.0 E 19 24 10 13 1024.9 1024.9 0.0
30/08:00am 10.6 6.7 1.4 53 3.9 SE 11 13 6 7 1024.9 1024.9 0.0
30/07:30am 7.0 4.1 1.5 68 2.2 SE 6 9 3 5 1024.4 1024.5 0.0
30/07:00am 5.3 2.3 0.7 72 1.8 ESE 6 9 3 5 1024.1 1024.2 0.0
30/06:30am 5.1 1.8 0.3 71 1.9 SE 7 11 4 6 1024.1 1024.2 0.0
30/06:00am 5.5 2.5 0.5 70 2.0 SE 6 7 3 4 1023.7 1023.7 0.0
30/05:30am 7.1 3.5 0.8 64 2.5 SE 9 15 5 8 1023.6 1023.6 0.0
30/05:00am 7.1 3.9 0.8 64 2.5 SE 7 13 4 7 1023.4 1023.4 0.0
30/04:30am 6.6 3.4 0.9 67 2.3 SE 7 11 4 6 1023.4 1023.4 0.0
30/04:00am 6.6 3.6 0.9 67 2.3 SSE 6 9 3 5 1023.4 1023.4 0.0
30/03:30am 6.7 3.5 1.0 67 2.3 SSE 7 11 4 6 1023.5 1023.5 0.0
30/03:00am 7.8 4.3 1.4 64 2.6 ESE 9 15 5 8 1023.6 1023.6 0.0
30/02:30am 6.4 4.6 1.3 70 2.1 CALM 0 6 0 3 1023.9 1024.0 0.0
30/02:00am 6.8 3.7 1.5 69 2.2 SE 7 9 4 5 1024.3 1024.4 0.0
30/01:30am 6.7 4.6 1.4 69 2.1 SSE 2 6 1 3 1024.8 1024.8 0.0
30/01:00am 7.8 5.0 1.9 66 2.5 SSE 6 7 3 4 1025.0 1025.0 0.0
30/12:30am 7.7 4.9 1.8 66 2.4 SSE 6 7 3 4 1025.2 1025.2 0.0
30/12:00am 7.6 4.6 1.7 66 2.4 SSE 7 9 4 5 1025.2 1025.2 0.0
 
Date/Time
CST
Temp
°C
App
Temp
°C
Dew
Point
Rel
Hum
%
Delta-T
°C
Wind Press
QNH
hPa
Press
MSL
hPa
Rain
since 9 am
mm
Dir
 
Spd
km/h
Gust
km/h
Spd
kts
Gust
kts
29/11:30pm 8.1 5.1 1.7 64 2.7 SSE 7 9 4 5 1025.2 1025.2 0.0
29/11:00pm 8.1 5.1 1.7 64 2.7 SSE 7 9 4 5 1025.3 1025.3 0.0
29/10:30pm 8.2 5.4 1.8 64 2.7 SSE 6 7 3 4 1025.4 1025.4 0.0
29/10:00pm 8.2 5.4 1.8 64 2.7 SE 6 9 3 5 1025.5 1025.5 0.0
29/09:30pm 8.9 6.1 1.8 61 3.0 SSE 6 7 3 4 1025.5 1025.5 0.0
29/09:00pm 9.7 6.8 1.6 57 3.4 SSE 6 9 3 5 1025.3 1025.3 0.0
29/08:30pm 10.4 7.0 1.8 55 3.7 SE 9 15 5 8 1025.1 1025.1 0.0
29/08:00pm 11.2 8.2 2.0 53 4.0 SE 7 11 4 6 1024.9 1024.9 0.0
29/07:30pm 12.3 8.6 2.2 50 4.4 SE 11 17 6 9 1024.5 1024.6 0.0
29/07:00pm 12.9 8.0 1.9 47 4.8 SE 17 22 9 12 1024.2 1024.3 0.0
29/06:30pm 13.5 8.6 2.1 46 5.0 SE 17 26 9 14 1024.0 1024.1 0.0
29/06:00pm 14.2 9.9 1.2 41 5.6 SE 13 24 7 13 1023.7 1023.7 0.0
29/05:30pm 14.7 10.4 0.9 39 6.0 SE 13 26 7 14 1023.5 1023.5 0.0
29/05:00pm 15.2 10.3 1.7 40 6.0 SE 17 24 9 13 1023.1 1023.1 0.0
29/04:30pm 15.8 12.4 1.9 39 6.2 SSE 9 19 5 10 1023.0 1023.0 0.0
29/04:00pm 15.7 11.9 1.8 39 6.2 SE 11 17 6 9 1023.1 1023.1 0.0
29/03:30pm 15.8 12.0 1.5 38 6.3 SSE 11 20 6 11 1023.1 1023.1 0.0
29/03:00pm 16.4 12.7 2.1 38 6.5 S 11 20 6 11 1023.2 1023.2 0.0
29/02:30pm 16.0 13.0 2.1 39 6.3 S 7 11 4 6 1023.4 1023.4 0.0
29/02:00pm 16.0 11.7 1.3 37 6.5 S 13 20 7 11 1023.7 1023.7 0.0
29/01:30pm 16.3 11.7 1.6 37 6.6 S 15 22 8 12 1023.9 1024.0 0.0
29/01:00pm 14.8 10.9 1.3 40 5.9 ESE 11 17 6 9 1024.4 1024.5 0.0
29/12:30pm 14.7 10.5 1.6 41 5.8 S 13 19 7 10 1025.0 1025.0 0.0
29/12:00pm 14.2 9.2 1.5 42 5.5 ESE 17 28 9 15 1025.6 1025.6 0.0
29/11:30am 13.8 7.8 1.1 42 5.5 E 22 30 12 16 1026.1 1026.1 0.0
29/11:00am 13.9 8.5 2.2 45 5.2 E 20 30 11 16 1026.3 1026.3 0.0
29/10:30am 14.5 9.4 3.9 49 4.9 E 20 30 11 16 1026.6 1026.6 0.0
29/10:00am 13.7 8.7 3.8 51 4.6 E 19 26 10 14 1026.9 1026.9 0.0
29/09:30am 12.7 6.7 3.6 54 4.1 ESE 24 33 13 18 1026.8 1026.8 0.0
29/09:00am 12.0 7.2 4.5 60 3.4 ESE 19 24 10 13 1026.9 1026.9 0.0
29/08:30am 11.7 6.9 4.9 63 3.1 E 19 22 10 12 1026.6 1026.6 0.0
29/08:00am 10.9 7.3 4.8 66 2.8 ESE 13 19 7 10 1026.5 1026.5 0.0
29/07:30am 9.0 7.4 4.6 74 2.0 SE 2 7 1 4 1026.2 1026.2 0.0
29/07:00am 6.6 3.5 3.6 81 1.3 SE 9 11 5 6 1025.9 1025.9 0.0
29/06:30am 5.8 2.6 3.0 82 1.2 ESE 9 11 5 6 1025.4 1025.4 0.0
29/06:00am 6.3 3.5 3.3 81 1.3 SE 7 9 4 5 1025.1 1025.1 0.0
29/05:30am 6.7 4.0 3.5 80 1.4 ESE 7 9 4 5 1025.0 1025.0 0.0
29/05:00am 6.6 3.1 3.4 80 1.4 ESE 11 13 6 7 1024.8 1024.8 0.0
29/04:30am 6.3 2.7 3.1 80 1.3 ESE 11 13 6 7 1024.7 1024.7 0.0
29/04:00am 6.8 3.2 3.2 78 1.5 ESE 11 13 6 7 1024.7 1024.7 0.0
29/03:30am 7.1 4.3 3.3 77 1.6 SE 7 9 4 5 1024.5 1024.6 0.0
29/03:00am 8.0 6.3 4.0 76 1.7 SE 2 7 1 4 1024.7 1024.7 0.0
29/02:30am 8.5 7.2 4.3 75 1.9 CALM 0 0 0 0 1025.0 1025.0 0.0
29/02:00am 9.0 7.8 4.6 74 2.0 CALM 0 0 0 0 1025.3 1025.3 0.0
29/01:30am 9.6 7.6 4.6 71 2.2 ESE 4 6 2 3 1025.7 1025.7 0.0
29/01:00am 10.2 9.0 4.8 69 2.5 CALM 0 2 0 1 1025.9 1025.9 0.0
29/12:30am 10.7 6.3 5.0 68 2.6 ESE 17 20 9 11 1025.9 1025.9 0.0
29/12:00am 10.9 6.6 5.2 68 2.6 ESE 17 22 9 12 1025.9 1025.9 0.0
 
Date/Time
CST
Temp
°C
App
Temp
°C
Dew
Point
Rel
Hum
%
Delta-T
°C
Wind Press
QNH
hPa
Press
MSL
hPa
Rain
since 9 am
mm
Dir
 
Spd
km/h
Gust
km/h
Spd
kts
Gust
kts
28/11:30pm 10.9 6.9 5.0 67 2.7 ESE 15 19 8 10 1026.1 1026.1 0.0
28/11:00pm 9.7 6.7 3.9 67 2.6 SE 9 11 5 6 1026.2 1026.2 0.0
28/10:30pm 10.9 8.5 4.1 63 3.1 SSE 6 9 3 5 1026.5 1026.5 0.0
28/10:00pm 11.7 9.3 4.2 60 3.4 SE 6 9 3 5 1026.4 1026.4 0.0
28/09:30pm 12.0 9.4 4.0 58 3.6 SE 7 11 4 6 1026.4 1026.4 0.0
28/09:00pm 12.2 8.8 4.2 58 3.6 SE 11 15 6 8 1026.3 1026.3 0.0
28/08:30pm 12.5 8.7 4.0 56 3.9 ESE 13 19 7 10 1026.0 1026.0 0.0
28/08:00pm 12.4 8.2 3.6 55 4.0 ESE 15 19 8 10 1025.4 1025.4 0.0
28/07:30pm 12.6 8.0 3.5 54 4.1 ESE 17 20 9 11 1025.2 1025.2 0.0
28/07:00pm 12.8 7.5 2.9 51 4.4 ESE 20 24 11 13 1024.7 1024.7 0.0
28/06:30pm 13.3 8.4 2.2 47 4.9 ESE 17 24 9 13 1024.4 1024.5 0.0
28/06:00pm 13.9 9.6 1.2 42 5.5 SE 13 19 7 10 1024.0 1024.1 0.0
28/05:30pm 14.7 9.4 1.6 41 5.8 SE 19 24 10 13 1023.8 1023.8 0.0
28/05:00pm 15.8 10.2 1.2 37 6.5 ESE 20 28 11 15 1023.8 1023.8 0.0
28/04:30pm 16.3 12.2 0.0 33 7.0 ESE 11 20 6 11 1023.7 1023.7 0.0
28/04:00pm 16.1 11.3 0.3 34 6.9 E 15 20 8 11 1023.7 1023.7 0.0
28/03:30pm 16.5 11.8 0.6 34 7.0 E 15 22 8 12 1023.8 1023.8 0.0
28/03:00pm 16.3 11.6 1.2 36 6.7 SE 15 26 8 14 1024.0 1024.1 0.0
28/02:30pm 16.5 11.6 1.8 37 6.6 SE 17 24 9 13 1024.2 1024.3 0.0
28/02:00pm 15.8 11.5 0.8 36 6.6 E 13 28 7 15 1024.5 1024.6 0.0
28/01:30pm 15.9 10.5 1.2 37 6.5 ESE 19 30 10 16 1024.9 1024.9 0.0
28/01:00pm 15.6 11.3 1.3 38 6.3 E 13 22 7 12 1025.4 1025.4 0.0
28/12:30pm 15.1 10.1 1.6 40 6.0 E 17 26 9 14 1025.9 1025.9 0.0
28/12:00pm 14.9 10.5 2.8 44 5.5 E 15 24 8 13 1026.5 1026.5 0.0
28/11:30am 14.6 9.4 3.4 47 5.1 ESE 20 30 11 16 1027.1 1027.1 0.0
28/11:00am 13.9 7.9 3.4 49 4.8 ESE 24 30 13 16 1027.4 1027.5 0.0
28/10:30am 13.8 8.0 4.4 53 4.4 ESE 24 37 13 20 1027.6 1027.7 0.0
28/10:00am 12.8 5.8 4.0 55 4.0 ESE 30 35 16 19 1027.8 1027.9 0.0
28/09:30am 12.5 6.0 4.7 59 3.6 ESE 28 35 15 19 1027.8 1027.9 0.0
28/09:00am 11.7 5.5 4.2 60 3.4 ESE 26 33 14 18 1027.7 1027.8 0.0
28/08:30am 11.1 5.7 4.3 63 3.1 ESE 22 32 12 17 1027.7 1027.8 0.0
28/08:00am 9.6 7.4 5.2 74 2.0 ESE 6 11 3 6 1027.6 1027.7 0.0
28/07:30am 7.2 5.6 4.7 84 1.1 SE 2 9 1 5 1027.3 1027.4 0.0
28/07:00am 5.6 4.2 3.6 87 0.9 CALM 0 0 0 0 1027.1 1027.1 0.0
28/06:30am 5.6 2.8 2.9 83 1.1 ESE 7 9 4 5 1026.8 1026.8 0.0
28/06:00am 7.2 3.8 4.2 81 1.3 SE 11 15 6 8 1026.5 1026.5 0.0
28/05:30am 7.6 3.9 4.4 80 1.4 SE 13 17 7 9 1026.3 1026.3 0.0
28/05:00am 7.8 4.1 4.4 79 1.5 SE 13 20 7 11 1026.1 1026.1 0.0
28/04:30am 7.9 4.6 4.5 79 1.5 SE 11 17 6 9 1025.9 1025.9 0.0
28/04:00am 7.9 4.2 4.3 78 1.6 SE 13 19 7 10 1025.7 1025.7 0.0
28/03:30am 7.7 4.3 3.9 77 1.7 SE 11 15 6 8 1025.8 1025.8 0.0
28/03:00am 7.8 4.0 3.7 75 1.8 ESE 13 17 7 9 1025.8 1025.8 0.0
28/02:30am 7.6 4.1 3.5 75 1.8 SE 11 17 6 9 1025.9 1025.9 0.0
28/02:00am 7.6 3.7 3.3 74 1.9 SE 13 17 7 9 1026.0 1026.0 0.0
28/01:30am 7.1 3.1 2.8 74 1.8 ESE 13 19 7 10 1026.1 1026.1 0.0
28/01:00am 7.0 3.4 2.9 75 1.7 SE 11 15 6 8 1026.3 1026.3 0.0
28/12:30am 7.1 4.5 3.0 75 1.7 SSE 6 11 3 6 1026.4 1026.4 0.0
28/12:00am 7.5 4.0 3.4 75 1.8 S 11 13 6 7 1026.3 1026.3 0.0
 
Date/Time
CST
Temp
°C
App
Temp
°C
Dew
Point
Rel
Hum
%
Delta-T
°C
Wind Press
QNH
hPa
Press
MSL
hPa
Rain
since 9 am
mm
Dir
 
Spd
km/h
Gust
km/h
Spd
kts
Gust
kts
27/11:30pm 8.2 3.9 3.5 72 2.0 S 15 17 8 9 1026.3 1026.3 0.0
27/11:00pm 8.3 4.4 3.6 72 2.1 SSW 13 17 7 9 1026.6 1026.6 0.0
27/10:30pm 8.7 5.6 3.5 70 2.3 SSW 9 13 5 7 1026.6 1026.6 0.0
27/10:00pm 9.1 4.8 3.5 68 2.5 SSW 15 17 8 9 1026.6 1026.6 0.0
27/09:30pm 9.3 5.0 3.1 65 2.7 SSW 15 17 8 9 1026.5 1026.5 0.0
27/09:00pm 9.4 5.0 2.9 64 2.8 SSW 15 17 8 9 1026.2 1026.2 0.0
27/08:30pm 10.0 5.2 2.8 61 3.1 SSW 17 20 9 11 1026.1 1026.1 0.0
27/08:00pm 10.4 5.6 2.7 59 3.4 SSW 17 20 9 11 1025.9 1025.9 0.0
27/07:30pm 11.2 6.0 2.5 55 3.8 SSW 19 24 10 13 1025.5 1025.5 0.0

Other Formats:

Comma delimited format used in spreadsheet applications
http://www.bom.gov.au/fwo/IDS60801/IDS60801.94674.axf

JavaScript Object Notation format (JSON) in row-major order
http://www.bom.gov.au/fwo/IDS60801/IDS60801.94674.json